Baie-Comeau, Canada
Current Conditions -  °F | °C
As of 3:00 AM on Saturday 29 Nov 2014 (Local Time) from CYBC Reporting Station
Clear Clear  
Wind Chill: -3°   Ceiling: Unl
Heat Index:   Visibility: 9mi
Dew Point:   Wind: 7mph
Humidity: 73%   Direction: 270°W
Pressure: 30.13"   Gusts: NA
Location:  49.22°N, 68.15°W
Report Text: CYBC 290800Z AUTO 27006KT 9SM CLR M13/M17 A3013 RMK SLP206
Loading
Personal Weather Stations






























Interactive Weather Map New forecast layout! Learn more

10-Day Weather Forecast

Advertisements
Track Severe Weather on mobile